Time;durP1;ratioP1;P1;durP2;ratioP2;P2;SDS_P1;SDS_P2;PMS_P1;PMS_P2;Temp;Humidity;BMP_temperature;BMP_pressure;BME280_temperature;BME280_humidity;BME280_pressure;Samples;Min_cycle;Max_cycle;Signal;HPM_P1;HPM_P2
2022/04/03 00:00:31;;;;;;;;;;;;;;;18.01;45.65;99687.13;5018301;28;803;-59
2022/04/03 00:02:57;;;;;;;;;;;;;;;18.05;45.91;99681.84;5018905;28;747;-60
2022/04/03 00:05:23;;;;;;;;;;;;;;;18.06;45.72;99683.44;5014584;28;819;-59
2022/04/03 00:07:48;;;;;;;;;;;;;;;17.93;45.19;99660.34;5018453;28;762;-60
2022/04/03 00:10:14;;;;;;;;;;;;;;;17.93;44.48;99665.84;5017989;28;880;-60
2022/04/03 00:12:40;;;;;;;;;;;;;;;17.66;43.36;99659.28;4975459;28;1918;-60
2022/04/03 00:15:06;;;;;;;;;;;;;;;17.43;42.09;99655.63;4981819;28;776;-60
2022/04/03 00:17:31;;;;;;;;;;;;;;;17.28;41.42;99659.50;5000181;28;874;-59
2022/04/03 00:19:57;;;;;;;;;;;;;;;17.15;40.51;99665.81;4999688;28;1120;-59
2022/04/03 00:22:23;;;;;;;;;;;;;;;17.00;39.99;99665.00;4999436;28;871;-60
2022/04/03 00:24:48;;;;;;;;;;;;;;;16.92;39.48;99657.44;5004661;28;833;-59
2022/04/03 00:27:14;;;;;;;;;;;;;;;16.85;39.57;99657.00;5018451;28;810;-58
2022/04/03 00:29:39;;;;;;;;;;;;;;;16.77;39.25;99666.72;5018003;28;830;-59
2022/04/03 00:32:05;;;;;;;;;;;;;;;16.75;39.98;99680.75;5002966;28;1967;-59
2022/04/03 00:34:30;;;;;;;;;;;;;;;17.03;41.74;99689.09;4999362;28;882;-58
2022/04/03 00:36:56;;;;;;;;;;;;;;;17.39;43.88;99696.66;4999260;28;895;-58
2022/04/03 00:39:22;;;;;;;;;;;;;;;17.74;45.41;99705.28;5002316;28;1436;-58
2022/04/03 00:41:47;;;;;;;;;;;;;;;18.04;45.93;99700.25;5018149;28;871;-59
2022/04/03 00:44:12;;;;;;;;;;;;;;;18.42;47.27;99697.16;5017038;28;811;-59
2022/04/03 00:46:38;;;;;;;;;;;;;;;18.76;47.73;99706.81;5018299;28;786;-58
2022/04/03 00:49:03;;;;;;;;;;;;;;;18.71;47.78;99720.69;4992966;28;1340;-62
2022/04/03 00:51:29;;;;;;;;;;;;;;;18.41;46.73;99723.09;5001051;28;869;-63
2022/04/03 00:53:55;;;;;;;;;;;;;;;18.01;45.07;99713.84;4998320;28;1990;-62
2022/04/03 00:56:20;;;;;;;;;;;;;;;17.70;43.17;99684.22;5000152;28;785;-61
2022/04/03 00:58:45;;;;;;;;;;;;;;;17.45;41.75;99664.38;5017708;28;840;-60
2022/04/03 01:01:11;;;;;;;;;;;;;;;17.31;40.72;99683.63;5017121;28;870;-62
2022/04/03 01:03:36;;;;;;;;;;;;;;;17.09;40.14;99660.41;5017721;28;712;-59
2022/04/03 01:06:02;;;;;;;;;;;;;;;16.99;39.85;99668.03;5017986;28;921;-60
2022/04/03 01:08:27;;;;;;;;;;;;;;;16.84;39.66;99655.38;4992260;28;808;-62
2022/04/03 01:10:53;;;;;;;;;;;;;;;16.81;38.89;99655.97;4998496;28;1121;-63
2022/04/03 01:13:19;;;;;;;;;;;;;;;16.70;39.11;99669.88;4998681;28;1902;-61
2022/04/03 01:16:03;;;;;;;;;;;;;;;16.69;39.05;99664.69;4998385;28;885;-60
2022/04/03 01:18:28;;;;;;;;;;;;;;;16.83;40.20;99667.47;4998985;28;802;-60
2022/04/03 01:20:53;;;;;;;;;;;;;;;17.00;41.65;99667.72;4998926;28;774;-62
2022/04/03 01:23:20;;;;;;;;;;;;;;;17.16;42.63;99662.75;4998192;28;919;-61
2022/04/03 01:25:45;;;;;;;;;;;;;;;17.23;43.57;99659.59;5011275;28;767;-63
2022/04/03 01:28:11;;;;;;;;;;;;;;;17.34;43.81;99657.47;5017644;28;997;-62
2022/04/03 01:30:36;;;;;;;;;;;;;;;17.40;44.20;99651.56;5016843;28;871;-61
2022/04/03 01:33:02;;;;;;;;;;;;;;;17.47;44.49;99653.09;5017488;28;1915;-62
2022/04/03 01:35:27;;;;;;;;;;;;;;;17.53;44.53;99657.34;5004811;28;846;-61
2022/04/03 01:37:52;;;;;;;;;;;;;;;17.58;44.68;99654.50;4997658;28;1296;-61
2022/04/03 01:40:18;;;;;;;;;;;;;;;17.62;44.74;99647.25;5009281;28;854;-62
2022/04/03 01:42:43;;;;;;;;;;;;;;;17.70;44.85;99652.03;5016785;28;873;-62
2022/04/03 01:45:09;;;;;;;;;;;;;;;17.66;44.63;99645.53;5016562;28;839;-61
2022/04/03 01:47:34;;;;;;;;;;;;;;;17.67;44.71;99649.91;5009790;28;807;-62
2022/04/03 01:50:00;;;;;;;;;;;;;;;17.72;44.56;99636.03;4998088;28;818;-61
2022/04/03 01:52:26;;;;;;;;;;;;;;;17.73;44.54;99636.84;4998199;28;1910;-62
2022/04/03 01:54:51;;;;;;;;;;;;;;;17.74;44.45;99633.78;4989393;28;851;-62
2022/04/03 01:57:17;;;;;;;;;;;;;;;17.76;44.37;99636.22;5016634;28;795;-62
2022/04/03 01:59:42;;;;;;;;;;;;;;;17.76;44.71;99642.53;5014183;28;786;-62
2022/04/03 02:02:08;;;;;;;;;;;;;;;17.77;44.34;99630.41;5013016;28;845;-62
2022/04/03 02:04:33;;;;;;;;;;;;;;;17.84;44.48;99632.75;4998006;28;2270;-63
2022/04/03 02:06:59;;;;;;;;;;;;;;;17.81;44.42;99629.78;5016475;28;768;-62
2022/04/03 02:09:24;;;;;;;;;;;;;;;17.84;44.46;99638.25;5010445;28;828;-63
2022/04/03 02:11:50;;;;;;;;;;;;;;;17.85;44.23;99639.88;5016251;28;859;-63
2022/04/03 02:14:15;;;;;;;;;;;;;;;17.86;44.12;99635.19;4999704;28;1910;-62
2022/04/03 02:16:40;;;;;;;;;;;;;;;17.88;44.11;99627.44;4997614;28;984;-63
2022/04/03 02:19:06;;;;;;;;;;;;;;;17.91;44.20;99635.13;4997780;28;728;-62
2022/04/03 02:21:31;;;;;;;;;;;;;;;17.88;44.19;99619.19;4997411;28;857;-62
2022/04/03 02:23:57;;;;;;;;;;;;;;;17.90;44.35;99630.69;5012102;28;1070;-62
2022/04/03 02:26:22;;;;;;;;;;;;;;;17.88;44.17;99632.94;5003916;28;850;-62
2022/04/03 02:28:48;;;;;;;;;;;;;;;17.92;44.09;99622.97;4997414;28;825;-60
2022/04/03 02:31:14;;;;;;;;;;;;;;;17.91;44.28;99629.63;4997406;28;851;-62
2022/04/03 02:33:39;;;;;;;;;;;;;;;17.95;44.13;99612.16;4997459;28;1913;-62
2022/04/03 02:36:05;;;;;;;;;;;;;;;17.99;44.03;99639.84;4979840;28;907;-62
2022/04/03 02:38:30;;;;;;;;;;;;;;;17.98;44.40;99632.75;4996655;28;983;-63
2022/04/03 02:40:55;;;;;;;;;;;;;;;17.96;44.32;99634.97;5006644;28;1051;-61
2022/04/03 02:43:21;;;;;;;;;;;;;;;17.86;43.71;99632.44;5015750;28;818;-61
2022/04/03 02:45:46;;;;;;;;;;;;;;;17.71;43.17;99650.91;5015679;28;858;-62
2022/04/03 02:48:12;;;;;;;;;;;;;;;17.51;42.37;99640.34;5016206;28;802;-61
2022/04/03 02:50:37;;;;;;;;;;;;;;;17.37;41.41;99630.19;5013316;28;878;-61
2022/04/03 02:53:03;;;;;;;;;;;;;;;17.24;40.95;99631.03;5012400;28;1988;-62
2022/04/03 02:55:28;;;;;;;;;;;;;;;17.13;40.26;99633.16;5009573;28;870;-61
2022/04/03 02:57:54;;;;;;;;;;;;;;;17.04;40.20;99637.72;5019546;28;842;-61
2022/04/03 03:00:19;;;;;;;;;;;;;;;16.91;39.92;99633.84;5011997;28;1216;-62
2022/04/03 03:02:51;;;;;;;;;;;;;;;16.93;39.54;99639.88;5020312;28;916;-61
2022/04/03 03:05:17;;;;;;;;;;;;;;;16.84;39.34;99647.94;5002324;28;862;-61
2022/04/03 03:07:45;;;;;;;;;;;;;;;16.74;39.33;99639.91;5001151;28;808;-60
2022/04/03 03:10:12;;;;;;;;;;;;;;;16.88;40.51;99659.13;5008886;28;909;-59
2022/04/03 03:12:38;;;;;;;;;;;;;;;17.18;42.25;99660.53;5019473;28;1910;-60
2022/04/03 03:15:04;;;;;;;;;;;;;;;17.60;43.74;99655.00;5019918;28;814;-63
2022/04/03 03:17:29;;;;;;;;;;;;;;;18.02;44.84;99661.25;5006472;28;823;-60
2022/04/03 03:19:55;;;;;;;;;;;;;;;18.28;45.43;99664.19;5000617;28;782;-60
2022/04/03 03:22:21;;;;;;;;;;;;;;;18.52;46.17;99679.59;5001526;28;813;-60
2022/04/03 03:24:46;;;;;;;;;;;;;;;18.73;46.82;99668.91;5007175;28;890;-61
2022/04/03 03:27:12;;;;;;;;;;;;;;;18.79;46.52;99678.63;5019294;28;830;-64
2022/04/03 03:29:38;;;;;;;;;;;;;;;18.34;46.13;99673.16;4994048;28;794;-64
2022/04/03 03:32:03;;;;;;;;;;;;;;;18.03;44.99;99684.06;5001257;28;742;-60
2022/04/03 03:34:29;;;;;;;;;;;;;;;17.78;43.45;99694.47;4999857;28;1969;-59
2022/04/03 03:36:55;;;;;;;;;;;;;;;17.48;41.83;99704.19;5011245;28;1130;-58
2022/04/03 03:39:20;;;;;;;;;;;;;;;17.24;40.70;99683.22;5012058;28;974;-58
2022/04/03 03:41:46;;;;;;;;;;;;;;;17.01;39.80;99685.84;5000049;28;788;-58
2022/04/03 03:44:11;;;;;;;;;;;;;;;16.87;39.17;99684.97;5017570;28;842;-58
2022/04/03 03:46:37;;;;;;;;;;;;;;;16.74;38.81;99687.38;5000577;28;846;-59
2022/04/03 03:49:03;;;;;;;;;;;;;;;16.60;38.49;99678.28;5019340;28;989;-59
2022/04/03 03:51:28;;;;;;;;;;;;;;;16.63;38.94;99683.16;4996850;28;1462;-63
2022/04/03 03:53:54;;;;;;;;;;;;;;;16.78;40.26;99684.84;4999736;28;1918;-57
2022/04/03 03:56:19;;;;;;;;;;;;;;;17.06;41.77;99684.94;5000626;28;1416;-56
2022/04/03 03:58:45;;;;;;;;;;;;;;;17.20;42.84;99693.19;4996282;28;811;-58
2022/04/03 04:01:12;;;;;;;;;;;;;;;17.32;44.13;99688.00;4997241;28;1353;-58
2022/04/03 04:03:37;;;;;;;;;;;;;;;17.40;44.53;99687.31;4996382;28;1484;-58
2022/04/03 04:06:03;;;;;;;;;;;;;;;17.53;44.93;99693.06;5012826;28;872;-58
2022/04/03 04:08:28;;;;;;;;;;;;;;;17.56;44.98;99681.47;5003577;28;814;-57
2022/04/03 04:10:54;;;;;;;;;;;;;;;17.66;44.97;99696.94;5014327;28;769;-57
2022/04/03 04:13:19;;;;;;;;;;;;;;;17.69;45.39;99694.38;5010671;28;1980;-56
2022/04/03 04:15:44;;;;;;;;;;;;;;;17.70;45.13;99687.78;4999911;28;918;-58
2022/04/03 04:18:10;;;;;;;;;;;;;;;17.75;45.20;99687.69;4999550;28;1121;-57
2022/04/03 04:20:36;;;;;;;;;;;;;;;17.76;45.40;99675.53;5005523;28;779;-58
2022/04/03 04:23:03;;;;;;;;;;;;;;;17.84;45.15;99675.91;5018736;28;818;-57
2022/04/03 04:25:28;;;;;;;;;;;;;;;17.93;44.97;99668.59;5015860;28;826;-58
2022/04/03 04:27:54;;;;;;;;;;;;;;;17.94;45.08;99676.53;5017713;28;807;-59
2022/04/03 04:30:19;;;;;;;;;;;;;;;17.95;45.14;99669.13;5011215;28;1376;-58
2022/04/03 04:32:45;;;;;;;;;;;;;;;18.02;45.16;99677.75;5001613;28;1909;-59
2022/04/03 04:35:10;;;;;;;;;;;;;;;18.08;45.04;99681.22;5001282;28;1423;-60
2022/04/03 04:37:36;;;;;;;;;;;;;;;18.07;44.84;99691.38;4998574;28;1365;-58
2022/04/03 04:40:03;;;;;;;;;;;;;;;17.84;44.46;99690.50;4998421;28;1326;-61
2022/04/03 04:42:28;;;;;;;;;;;;;;;17.68;43.34;99690.00;4997767;28;1443;-60
2022/04/03 04:44:54;;;;;;;;;;;;;;;17.50;42.31;99690.94;4999272;28;754;-61
2022/04/03 04:47:19;;;;;;;;;;;;;;;17.25;41.37;99698.56;5011839;28;826;-61
2022/04/03 04:49:45;;;;;;;;;;;;;;;17.07;40.79;99698.34;5009028;28;858;-61
2022/04/03 04:52:10;;;;;;;;;;;;;;;16.97;40.16;99704.03;5017675;28;838;-58
2022/04/03 04:54:36;;;;;;;;;;;;;;;16.97;39.75;99720.53;5008526;28;1957;-58
2022/04/03 04:57:01;;;;;;;;;;;;;;;16.86;39.30;99711.59;4995588;28;751;-57
2022/04/03 04:59:27;;;;;;;;;;;;;;;16.73;39.56;99709.63;4991918;28;1496;-57
2022/04/03 05:01:56;;;;;;;;;;;;;;;16.69;39.62;99728.66;4989772;28;1349;-58
2022/04/03 05:04:24;;;;;;;;;;;;;;;16.86;40.84;99710.81;4992001;28;1203;-57
2022/04/03 05:06:50;;;;;;;;;;;;;;;17.35;43.95;99719.53;4996512;28;1393;-57
2022/04/03 05:09:17;;;;;;;;;;;;;;;17.92;45.29;99727.47;4990491;28;1571;-59
2022/04/03 05:11:43;;;;;;;;;;;;;;;18.28;46.04;99708.22;4996891;28;1249;-59
2022/04/03 05:14:08;;;;;;;;;;;;;;;18.61;46.69;99710.75;4989111;28;1906;-58
2022/04/03 05:16:34;;;;;;;;;;;;;;;18.78;47.17;99693.53;4992457;28;1373;-58
2022/04/03 05:18:59;;;;;;;;;;;;;;;18.61;46.76;99694.25;4996795;28;1381;-60
2022/04/03 05:21:25;;;;;;;;;;;;;;;18.24;46.02;99700.91;4994136;28;1360;-61
2022/04/03 05:23:50;;;;;;;;;;;;;;;17.93;44.42;99693.34;4972925;28;1575;-60
2022/04/03 05:26:17;;;;;;;;;;;;;;;17.63;42.90;99692.88;4988427;28;1355;-58
2022/04/03 05:28:43;;;;;;;;;;;;;;;17.52;41.90;99703.25;4990398;28;1468;-58
2022/04/03 05:31:08;;;;;;;;;;;;;;;17.26;40.55;99700.19;4993283;28;1094;-62
2022/04/03 05:33:35;;;;;;;;;;;;;;;17.06;39.87;99707.69;4999681;28;1973;-62
2022/04/03 05:36:00;;;;;;;;;;;;;;;17.01;39.54;99712.47;4989904;28;1531;-60
2022/04/03 05:38:26;;;;;;;;;;;;;;;16.82;38.90;99709.78;5009839;28;1225;-59
2022/04/03 05:40:51;;;;;;;;;;;;;;;16.75;38.92;99719.19;5010061;28;1450;-61
2022/04/03 05:43:17;;;;;;;;;;;;;;;16.87;39.21;99723.41;4999424;28;1420;-61
2022/04/03 05:45:42;;;;;;;;;;;;;;;16.91;40.42;99716.22;4991073;28;1401;-61
2022/04/03 05:48:07;;;;;;;;;;;;;;;17.16;42.10;99722.38;4990898;28;1159;-59
2022/04/03 05:50:33;;;;;;;;;;;;;;;17.24;43.16;99718.94;4996448;28;1237;-60
2022/04/03 05:52:59;;;;;;;;;;;;;;;17.36;43.86;99727.50;4996894;28;1902;-60
2022/04/03 05:55:24;;;;;;;;;;;;;;;17.44;44.42;99726.75;5007141;28;846;-61
2022/04/03 05:57:52;;;;;;;;;;;;;;;17.56;44.77;99725.47;5001763;28;1047;-60
2022/04/03 06:00:18;;;;;;;;;;;;;;;17.64;45.02;99732.97;5001922;28;739;-62
2022/04/03 06:03:01;;;;;;;;;;;;;;;17.70;45.26;99731.75;5016097;28;798;-62
2022/04/03 06:05:27;;;;;;;;;;;;;;;17.73;45.41;99739.38;4998564;28;856;-57
2022/04/03 06:07:53;;;;;;;;;;;;;;;17.84;45.28;99739.16;4997881;28;913;-56
2022/04/03 06:10:19;;;;;;;;;;;;;;;17.87;45.70;99741.31;4993592;28;901;-56
2022/04/03 06:13:03;;;;;;;;;;;;;;;17.88;45.48;99737.44;4996313;28;1910;-57
2022/04/03 06:15:33;;;;;;;;;;;;;;;18.00;45.24;99737.75;4986971;28;1212;-57
2022/04/03 06:17:58;;;;;;;;;;;;;;;18.01;45.39;99736.63;4998738;28;1214;-56
2022/04/03 06:20:24;;;;;;;;;;;;;;;18.02;45.47;99738.28;4998708;28;822;-58
2022/04/03 06:22:50;;;;;;;;;;;;;;;18.07;45.49;99746.41;5011290;28;804;-59
2022/04/03 06:25:15;;;;;;;;;;;;;;;18.09;45.65;99751.59;4997054;28;1043;-59
2022/04/03 06:27:41;;;;;;;;;;;;;;;18.16;45.37;99751.16;4998756;28;820;-60
2022/04/03 06:30:07;;;;;;;;;;;;;;;18.02;45.18;99748.44;4996803;28;1012;-58
2022/04/03 06:32:32;;;;;;;;;;;;;;;17.88;44.38;99742.94;4997085;28;1985;-57
2022/04/03 06:34:58;;;;;;;;;;;;;;;17.62;43.10;99737.97;4997440;28;771;-58
2022/04/03 06:37:24;;;;;;;;;;;;;;;17.46;41.76;99748.47;4997505;28;1007;-56
2022/04/03 06:39:50;;;;;;;;;;;;;;;17.27;41.00;99745.78;4991050;28;1192;-58
2022/04/03 06:42:15;;;;;;;;;;;;;;;17.19;40.65;99760.22;4987938;28;1187;-57
2022/04/03 06:44:40;;;;;;;;;;;;;;;17.03;40.27;99752.25;4986946;28;1307;-57
2022/04/03 06:47:06;;;;;;;;;;;;;;;16.95;39.99;99761.19;4997352;28;1233;-60
2022/04/03 06:49:32;;;;;;;;;;;;;;;16.90;39.89;99753.03;4996875;28;922;-59
2022/04/03 06:51:57;;;;;;;;;;;;;;;16.85;39.74;99761.34;5000499;28;827;-59
2022/04/03 06:54:23;;;;;;;;;;;;;;;16.79;39.69;99770.75;5000148;28;1906;-60
2022/04/03 06:56:48;;;;;;;;;;;;;;;16.71;39.63;99766.78;5003208;28;806;-58
2022/04/03 06:59:13;;;;;;;;;;;;;;;16.68;39.49;99770.94;4996697;28;814;-60
2022/04/03 07:01:39;;;;;;;;;;;;;;;16.61;39.62;99778.72;4994753;28;1469;-59
2022/04/03 07:04:05;;;;;;;;;;;;;;;16.58;39.46;99776.59;5001109;28;858;-57
2022/04/03 07:06:30;;;;;;;;;;;;;;;16.56;39.80;99776.06;5007417;28;774;-58
2022/04/03 07:08:56;;;;;;;;;;;;;;;16.61;40.12;99784.22;5013153;28;849;-59
2022/04/03 07:11:21;;;;;;;;;;;;;;;16.70;40.91;99790.66;5010188;28;842;-59
2022/04/03 07:13:48;;;;;;;;;;;;;;;16.87;41.93;99781.06;4996590;28;1971;-57
2022/04/03 07:16:14;;;;;;;;;;;;;;;17.35;44.69;99779.97;4996164;28;1213;-59
2022/04/03 07:18:39;;;;;;;;;;;;;;;17.72;45.98;99794.69;4971309;28;1367;-57
2022/04/03 07:21:05;;;;;;;;;;;;;;;18.03;46.49;99777.59;5000370;28;925;-61
2022/04/03 07:23:30;;;;;;;;;;;;;;;18.27;46.90;99771.84;5015343;28;877;-59
2022/04/03 07:25:56;;;;;;;;;;;;;;;18.57;47.46;99788.78;5008888;28;838;-59
2022/04/03 07:28:22;;;;;;;;;;;;;;;18.63;47.33;99787.53;4998565;28;940;-59
2022/04/03 07:30:47;;;;;;;;;;;;;;;18.39;46.86;99796.88;4996134;28;854;-57
2022/04/03 07:33:13;;;;;;;;;;;;;;;18.05;45.66;99795.41;5014182;28;1905;-57
2022/04/03 07:35:38;;;;;;;;;;;;;;;17.70;43.77;99795.00;5015159;28;803;-59
2022/04/03 07:38:04;;;;;;;;;;;;;;;17.48;42.20;99789.38;5015232;28;986;-61
2022/04/03 07:40:30;;;;;;;;;;;;;;;17.24;40.91;99802.16;5010184;28;837;-61
2022/04/03 07:42:56;;;;;;;;;;;;;;;17.07;39.99;99802.72;5018446;28;859;-57
2022/04/03 07:45:22;;;;;;;;;;;;;;;16.96;39.55;99800.44;5006573;28;1235;-57
2022/04/03 07:47:47;;;;;;;;;;;;;;;16.77;39.19;99796.59;5000415;28;785;-58
2022/04/03 07:50:13;;;;;;;;;;;;;;;16.75;38.96;99812.53;4997624;28;846;-57
2022/04/03 07:52:38;;;;;;;;;;;;;;;16.72;39.23;99813.13;5014438;28;1910;-58
2022/04/03 07:55:04;;;;;;;;;;;;;;;16.97;41.12;99819.38;5002853;28;1392;-57
2022/04/03 07:57:30;;;;;;;;;;;;;;;17.38;44.10;99809.63;4996941;28;1491;-56
2022/04/03 07:59:55;;;;;;;;;;;;;;;17.95;46.75;99826.72;4997446;28;1409;-58
2022/04/03 08:02:21;;;;;;;;;;;;;;;18.41;47.64;99833.19;4991657;28;1448;-58
2022/04/03 08:04:46;;;;;;;;;;;;;;;18.77;47.87;99826.84;5000768;28;1297;-58
2022/04/03 08:07:12;;;;;;;;;;;;;;;18.84;48.03;99822.84;4995276;28;727;-58
2022/04/03 08:09:38;;;;;;;;;;;;;;;18.41;46.74;99816.66;5011509;28;944;-58
2022/04/03 08:12:04;;;;;;;;;;;;;;;18.13;45.39;99816.72;5003494;28;757;-59
2022/04/03 08:14:31;;;;;;;;;;;;;;;17.90;43.84;99825.97;5018408;28;1961;-59
2022/04/03 08:16:58;;;;;;;;;;;;;;;17.58;42.27;99822.16;5018308;28;823;-57
2022/04/03 08:19:23;;;;;;;;;;;;;;;17.44;41.06;99822.94;5018442;28;916;-58
2022/04/03 08:21:48;;;;;;;;;;;;;;;17.28;40.69;99818.88;5015750;28;933;-58
2022/04/03 08:24:14;;;;;;;;;;;;;;;17.07;39.95;99821.94;5012301;28;934;-59
2022/04/03 08:26:41;;;;;;;;;;;;;;;17.08;39.48;99825.50;4991475;28;1286;-58
2022/04/03 08:29:06;;;;;;;;;;;;;;;17.07;39.15;99829.38;4994304;28;1464;-59
2022/04/03 08:31:32;;;;;;;;;;;;;;;16.91;39.07;99835.13;4990726;28;1298;-59
2022/04/03 08:33:57;;;;;;;;;;;;;;;16.90;39.15;99832.66;4999118;28;1976;-58
2022/04/03 08:36:23;;;;;;;;;;;;;;;16.99;40.67;99839.13;5000430;28;890;-57
2022/04/03 08:38:50;;;;;;;;;;;;;;;17.33;42.73;99837.19;4998154;28;991;-57
2022/04/03 08:41:16;;;;;;;;;;;;;;;17.83;46.11;99834.63;4999288;28;786;-58
2022/04/03 08:43:41;;;;;;;;;;;;;;;18.31;47.75;99833.38;5003586;28;843;-60
2022/04/03 08:46:07;;;;;;;;;;;;;;;18.63;47.84;99848.09;5001957;28;909;-58
2022/04/03 08:48:33;;;;;;;;;;;;;;;18.61;47.81;99836.59;5009061;28;798;-59
2022/04/03 08:50:59;;;;;;;;;;;;;;;18.23;46.17;99834.94;5017992;28;835;-59
2022/04/03 08:53:25;;;;;;;;;;;;;;;17.93;44.55;99845.44;5016393;28;1910;-58
2022/04/03 08:55:50;;;;;;;;;;;;;;;17.70;42.92;99832.69;4997536;28;968;-57
2022/04/03 08:58:16;;;;;;;;;;;;;;;17.48;41.29;99838.84;5000337;28;963;-57
2022/04/03 09:00:42;;;;;;;;;;;;;;;17.24;40.83;99840.63;4998928;28;1495;-57
2022/04/03 09:03:07;;;;;;;;;;;;;;;17.15;40.00;99853.41;4999642;28;1381;-57
2022/04/03 09:05:39;;;;;;;;;;;;;;;17.00;39.51;99851.72;4993141;28;794;-57
2022/04/03 09:08:05;;;;;;;;;;;;;;;16.93;39.05;99854.06;4985940;28;1428;-57
2022/04/03 09:10:30;;;;;;;;;;;;;;;16.78;39.07;99852.31;4995902;28;878;-57
2022/04/03 09:12:55;;;;;;;;;;;;;;;16.76;38.67;99882.00;4996371;28;1984;-57
2022/04/03 09:15:21;;;;;;;;;;;;;;;16.77;39.33;99859.75;4996627;28;1385;-57
2022/04/03 09:17:54;;;;;;;;;;;;;;;16.90;40.75;99862.84;4992749;28;1389;-57
2022/04/03 09:20:20;;;;;;;;;;;;;;;17.04;42.12;99868.41;4997871;28;1566;-57
2022/04/03 09:22:48;;;;;;;;;;;;;;;17.21;42.79;99857.72;4987880;28;1388;-57
2022/04/03 09:25:16;;;;;;;;;;;;;;;17.33;44.21;99862.72;4991463;28;1274;-56
2022/04/03 09:27:49;;;;;;;;;;;;;;;17.42;44.49;99857.38;4998030;28;1349;-57
2022/04/03 09:30:14;;;;;;;;;;;;;;;17.50;44.87;99853.09;5012578;28;831;-57
2022/04/03 09:32:54;;;;;;;;;;;;;;;17.62;45.29;99861.69;4997280;28;1886;-57
2022/04/03 09:35:20;;;;;;;;;;;;;;;17.69;45.43;99856.59;5002729;28;819;-57
2022/04/03 09:38:04;;;;;;;;;;;;;;;17.76;45.49;99861.69;4979983;28;1112;-59
2022/04/03 09:40:30;;;;;;;;;;;;;;;17.85;45.59;99865.38;5010379;28;856;-59
2022/04/03 09:43:14;;;;;;;;;;;;;;;17.91;46.05;99868.88;4992373;28;1197;-57
2022/04/03 09:45:44;;;;;;;;;;;;;;;17.93;46.12;99856.44;4991053;28;1369;-58
2022/04/03 09:48:22;;;;;;;;;;;;;;;18.00;45.86;99866.22;4997145;28;1248;-60
2022/04/03 09:51:05;;;;;;;;;;;;;;;18.07;45.91;99866.63;4996063;28;1229;-59
2022/04/03 09:53:47;;;;;;;;;;;;;;;18.12;45.96;99874.81;4997323;28;1975;-59
2022/04/03 09:56:23;;;;;;;;;;;;;;;18.09;46.29;99865.22;4973031;28;1403;-60
2022/04/03 09:58:51;;;;;;;;;;;;;;;18.23;46.09;99875.38;4990806;28;1303;-60
2022/04/03 10:01:21;;;;;;;;;;;;;;;18.14;45.79;99867.03;4995905;28;1181;-59
2022/04/03 10:03:46;;;;;;;;;;;;;;;18.00;45.00;99877.25;4993827;28;1224;-59
2022/04/03 10:06:12;;;;;;;;;;;;;;;17.78;43.62;99878.69;4976494;28;1289;-59
2022/04/03 10:08:37;;;;;;;;;;;;;;;17.61;42.39;99888.38;4976772;28;1279;-61
2022/04/03 10:11:03;;;;;;;;;;;;;;;17.40;41.13;99898.91;4990795;28;1456;-58
2022/04/03 10:13:28;;;;;;;;;;;;;;;17.30;40.42;99892.75;4993100;28;1910;-60
2022/04/03 10:15:54;;;;;;;;;;;;;;;17.13;40.18;99887.81;4979471;28;1190;-61
2022/04/03 10:18:20;;;;;;;;;;;;;;;17.08;39.75;99895.00;4977300;28;1174;-59
2022/04/03 10:20:45;;;;;;;;;;;;;;;16.98;39.42;99897.88;4978670;28;1266;-58
2022/04/03 10:23:12;;;;;;;;;;;;;;;16.88;39.29;99882.38;4979647;28;1117;-58
2022/04/03 10:25:38;;;;;;;;;;;;;;;16.85;39.21;99891.19;4980127;28;1145;-59
2022/04/03 10:28:05;;;;;;;;;;;;;;;16.76;39.17;99891.03;4980065;28;816;-60
2022/04/03 10:30:34;;;;;;;;;;;;;;;16.77;39.36;99884.44;5008619;28;838;-57
2022/04/03 10:33:00;;;;;;;;;;;;;;;16.99;41.52;99905.03;5015675;28;1918;-57
2022/04/03 10:35:25;;;;;;;;;;;;;;;17.58;44.26;99904.63;5016328;28;794;-61
2022/04/03 10:38:01;;;;;;;;;;;;;;;17.93;45.92;99897.69;5015513;28;1113;-58
2022/04/03 10:40:29;;;;;;;;;;;;;;;18.27;46.36;99912.19;5000572;28;983;-57
2022/04/03 10:42:58;;;;;;;;;;;;;;;18.54;46.88;99914.09;5003414;28;732;-58
2022/04/03 10:45:27;;;;;;;;;;;;;;;18.68;47.08;99922.34;5015868;28;834;-57
2022/04/03 10:48:13;;;;;;;;;;;;;;;18.35;46.52;99916.97;5016291;28;967;-58
2022/04/03 10:50:54;;;;;;;;;;;;;;;18.04;44.94;99912.06;5015647;28;1219;-58
2022/04/03 10:53:23;;;;;;;;;;;;;;;17.73;43.10;99898.06;5014987;28;1898;-57
2022/04/03 10:55:52;;;;;;;;;;;;;;;17.50;42.11;99902.56;4996703;28;1024;-57
2022/04/03 10:58:17;;;;;;;;;;;;;;;17.35;40.68;99912.72;4996947;28;890;-57
2022/04/03 11:00:43;;;;;;;;;;;;;;;17.19;39.87;99912.13;4996297;28;834;-60
2022/04/03 11:03:15;;;;;;;;;;;;;;;17.00;39.76;99914.91;4996871;28;809;-61
2022/04/03 11:05:45;;;;;;;;;;;;;;;16.91;39.36;99923.00;4996981;28;829;-57
2022/04/03 11:08:10;;;;;;;;;;;;;;;16.84;39.17;99918.94;5001762;28;811;-60
2022/04/03 11:10:54;;;;;;;;;;;;;;;16.90;40.24;99907.63;5010691;28;869;-63
2022/04/03 11:13:28;;;;;;;;;;;;;;;17.58;44.15;99921.13;5014074;28;1965;-59
2022/04/03 11:15:57;;;;;;;;;;;;;;;18.24;47.15;99918.31;4996801;28;802;-59
2022/04/03 11:18:27;;;;;;;;;;;;;;;18.88;47.62;99928.56;5000548;28;772;-57
2022/04/03 11:21:11;;;;;;;;;;;;;;;19.22;47.51;99913.44;5001796;28;783;-57
2022/04/03 11:23:40;;;;;;;;;;;;;;;18.24;48.50;99918.31;5017834;28;858;-57
2022/04/03 11:26:05;;;;;;;;;;;;;;;17.88;47.24;99924.44;5000610;28;870;-58
2022/04/03 11:28:31;;;;;;;;;;;;;;;17.44;45.82;99908.16;5001214;28;1325;-60
2022/04/03 11:30:57;;;;;;;;;;;;;;;17.44;43.65;99915.59;5007067;28;1158;-59
2022/04/03 11:33:22;;;;;;;;;;;;;;;17.37;41.98;99907.72;4991292;28;1963;-59
2022/04/03 11:35:48;;;;;;;;;;;;;;;17.23;41.36;99906.88;4997446;28;1201;-59
2022/04/03 11:38:13;;;;;;;;;;;;;;;17.08;40.37;99911.50;4996603;28;1269;-57
2022/04/03 11:40:39;;;;;;;;;;;;;;;16.98;40.19;99917.13;4982881;28;997;-58
2022/04/03 11:43:07;;;;;;;;;;;;;;;16.88;39.21;99909.84;4999746;28;763;-56
2022/04/03 11:45:32;;;;;;;;;;;;;;;16.74;39.39;99909.72;4999356;28;1226;-57
2022/04/03 11:48:16;;;;;;;;;;;;;;;16.75;38.88;99924.28;4994318;28;1397;-57
2022/04/03 11:50:41;;;;;;;;;;;;;;;16.77;39.64;99909.16;4989630;28;1255;-57
2022/04/03 11:53:08;;;;;;;;;;;;;;;16.91;40.66;99920.25;4999180;28;1906;-57
2022/04/03 11:55:35;;;;;;;;;;;;;;;17.07;42.06;99920.03;4997253;28;945;-57
2022/04/03 11:58:03;;;;;;;;;;;;;;;17.34;44.13;99927.56;5003633;28;1349;-57
2022/04/03 12:00:32;;;;;;;;;;;;;;;17.85;46.96;99927.81;4997759;28;900;-58
2022/04/03 12:02:58;;;;;;;;;;;;;;;18.24;47.87;99943.06;4999170;28;787;-56
2022/04/03 12:05:23;;;;;;;;;;;;;;;18.52;48.35;99945.81;5015823;28;787;-56
2022/04/03 12:07:49;;;;;;;;;;;;;;;18.67;47.82;99933.69;5001926;28;786;-58
2022/04/03 12:10:28;;;;;;;;;;;;;;;18.27;46.93;99934.19;5009594;28;826;-57
2022/04/03 12:12:55;;;;;;;;;;;;;;;17.97;45.26;99944.66;5001192;28;1910;-57
2022/04/03 12:15:21;;;;;;;;;;;;;;;17.74;43.20;99944.50;4982071;28;1372;-57
2022/04/03 12:17:47;;;;;;;;;;;;;;;17.44;42.13;99949.38;4996843;28;1537;-58
2022/04/03 12:20:12;;;;;;;;;;;;;;;17.37;41.39;99942.63;4983081;28;1190;-58
2022/04/03 12:22:40;;;;;;;;;;;;;;;17.26;40.48;99961.22;4995899;28;763;-59
2022/04/03 12:25:06;;;;;;;;;;;;;;;17.08;39.90;99968.34;4996936;28;1138;-59
2022/04/03 12:27:33;;;;;;;;;;;;;;;16.96;39.57;99955.06;4993172;28;1546;-61
2022/04/03 12:29:58;;;;;;;;;;;;;;;16.87;39.02;99963.13;4972869;28;1267;-61
2022/04/03 12:32:35;;;;;;;;;;;;;;;16.74;38.82;99956.41;4986384;28;1316;-61
2022/04/03 12:35:01;;;;;;;;;;;;;;;16.73;39.36;99951.22;5000536;28;823;-60
2022/04/03 12:37:27;;;;;;;;;;;;;;;16.89;40.55;99951.88;5007546;28;1301;-60
2022/04/03 12:39:53;;;;;;;;;;;;;;;17.05;41.78;99956.00;5008893;28;1213;-59
2022/04/03 12:42:19;;;;;;;;;;;;;;;17.21;42.68;99958.56;5014942;28;826;-58
2022/04/03 12:44:45;;;;;;;;;;;;;;;17.27;43.13;99971.09;5002852;28;831;-62
2022/04/03 12:47:11;;;;;;;;;;;;;;;17.34;43.79;99971.53;5017840;28;754;-61
2022/04/03 12:49:36;;;;;;;;;;;;;;;17.39;43.84;99971.47;5016098;28;943;-58
2022/04/03 12:52:02;;;;;;;;;;;;;;;17.38;43.99;99969.00;5002466;28;993;-58
2022/04/03 12:54:40;;;;;;;;;;;;;;;17.44;44.16;99970.56;5007931;28;1909;-56
2022/04/03 13:00:04;;;;;;;;;;;;;;;17.56;44.34;99961.84;4994400;28;1185;-59
2022/04/03 13:02:38;;;;;;;;;;;;;;;17.58;44.41;99965.13;4998660;28;814;-59